TimeEST,TemperatureF,Dew PointF,Humidity,Sea Level PressureIn,VisibilityMPH,Wind Direction,Wind SpeedMPH,Gust SpeedMPH,PrecipitationIn,Events,Conditions,WindDirDegrees,DateUTC
12:15 AM,30.2,30.2,100,30.22,9.0,Calm,Calm,-,N/A,,Unknown,0,2012-11-09 05:15:00
12:35 AM,30.2,30.2,100,30.23,8.0,Calm,Calm,-,N/A,,Unknown,0,2012-11-09 05:35:00
12:55 AM,28.4,28.4,100,30.24,7.0,Calm,Calm,-,N/A,,Unknown,0,2012-11-09 05:55:00
1:15 AM,28.4,28.4,100,30.24,7.0,Calm,Calm,-,N/A,,Unknown,0,2012-11-09 06:15:00
1:35 AM,28.4,28.4,100,30.24,6.0,Calm,Calm,-,N/A,,Mist,0,2012-11-09 06:35:00
1:55 AM,28.4,28.4,100,30.24,6.0,Calm,Calm,-,N/A,,Mist,0,2012-11-09 06:55:00
2:15 AM,28.4,28.4,100,30.23,7.0,Calm,Calm,-,N/A,,Unknown,0,2012-11-09 07:15:00
2:35 AM,28.4,26.6,93,30.24,8.0,Calm,Calm,-,N/A,,Unknown,0,2012-11-09 07:35:00
2:55 AM,26.6,26.6,100,30.24,8.0,Calm,Calm,-,N/A,,Unknown,0,2012-11-09 07:55:00
3:15 AM,28.4,28.4,100,30.24,8.0,Calm,Calm,-,N/A,,Unknown,0,2012-11-09 08:15:00
3:35 AM,28.4,26.6,93,30.25,10.0,Calm,Calm,-,N/A,,Unknown,0,2012-11-09 08:35:00
3:55 AM,26.6,24.8,93,30.25,8.0,Calm,Calm,-,N/A,,Unknown,0,2012-11-09 08:55:00
4:15 AM,26.6,26.6,100,30.26,7.0,Calm,Calm,-,N/A,,Unknown,0,2012-11-09 09:15:00
4:35 AM,26.6,26.6,100,30.26,8.0,Calm,Calm,-,N/A,,Unknown,0,2012-11-09 09:35:00
4:55 AM,26.6,26.6,100,30.27,7.0,Calm,Calm,-,N/A,,Unknown,0,2012-11-09 09:55:00
5:15 AM,24.8,24.8,100,30.27,7.0,Calm,Calm,-,N/A,,Unknown,0,2012-11-09 10:15:00
5:35 AM,24.8,24.8,100,30.27,8.0,Calm,Calm,-,N/A,,Unknown,0,2012-11-09 10:35:00
5:55 AM,26.6,26.6,100,30.28,8.0,Calm,Calm,-,N/A,,Unknown,0,2012-11-09 10:55:00
6:15 AM,26.6,26.6,100,30.28,8.0,Calm,Calm,-,N/A,,Unknown,0,2012-11-09 11:15:00
6:35 AM,26.6,24.8,93,30.29,8.0,Calm,Calm,-,N/A,,Unknown,0,2012-11-09 11:35:00
6:55 AM,24.8,24.8,100,30.29,10.0,Calm,Calm,-,N/A,,Unknown,0,2012-11-09 11:55:00
7:15 AM,24.8,24.8,100,30.30,8.0,Calm,Calm,-,N/A,,Unknown,0,2012-11-09 12:15:00
7:35 AM,26.6,26.6,100,30.31,7.0,Calm,Calm,-,N/A,,Unknown,0,2012-11-09 12:35:00
7:55 AM,28.4,26.6,93,30.32,7.0,Calm,Calm,-,N/A,,Clear,0,2012-11-09 12:55:00
8:15 AM,30.2,28.4,93,30.33,8.0,Calm,Calm,-,N/A,,Clear,0,2012-11-09 13:15:00
8:35 AM,32.0,30.2,93,30.33,9.0,Calm,Calm,-,N/A,,Clear,0,2012-11-09 13:35:00
8:55 AM,32.0,30.2,93,30.34,10.0,Calm,Calm,-,N/A,,Clear,0,2012-11-09 13:55:00
9:15 AM,35.6,32.0,87,30.33,10.0,Calm,Calm,-,N/A,,Clear,0,2012-11-09 14:15:00
9:35 AM,37.4,32.0,81,30.34,10.0,Calm,Calm,-,N/A,,Clear,0,2012-11-09 14:35:00
9:55 AM,39.2,32.0,75,30.34,10.0,Calm,Calm,-,N/A,,Clear,0,2012-11-09 14:55:00
10:15 AM,42.8,32.0,66,30.34,10.0,Calm,Calm,-,N/A,,Clear,0,2012-11-09 15:15:00
10:35 AM,46.4,33.8,62,30.34,10.0,Calm,Calm,-,N/A,,Clear,0,2012-11-09 15:35:00
10:55 AM,48.2,33.8,58,30.33,10.0,Calm,Calm,-,N/A,,Clear,0,2012-11-09 15:55:00
11:15 AM,50.0,33.8,54,30.33,10.0,Calm,Calm,-,N/A,,Clear,0,2012-11-09 16:15:00
11:35 AM,50.0,32.0,50,30.32,10.0,Calm,Calm,-,N/A,,Clear,0,2012-11-09 16:35:00
11:55 AM,53.6,32.0,44,30.31,10.0,Calm,Calm,-,N/A,,Clear,0,2012-11-09 16:55:00
12:15 PM,53.6,32.0,44,30.30,10.0,Calm,Calm,-,N/A,,Clear,0,2012-11-09 17:15:00
12:35 PM,55.4,32.0,41,30.28,10.0,SW,3.5,-,N/A,,Clear,220,2012-11-09 17:35:00
12:55 PM,55.4,32.0,41,30.28,10.0,SSW,3.5,-,N/A,,Clear,200,2012-11-09 17:55:00
1:15 PM,57.2,32.0,38,30.27,10.0,SSE,5.8,-,N/A,,Clear,160,2012-11-09 18:15:00
1:35 PM,57.2,32.0,38,30.26,10.0,Calm,Calm,-,N/A,,Clear,0,2012-11-09 18:35:00
1:55 PM,59.0,32.0,36,30.25,10.0,SW,4.6,-,N/A,,Clear,230,2012-11-09 18:55:00
2:15 PM,59.0,32.0,36,30.24,10.0,West,4.6,-,N/A,,Clear,260,2012-11-09 19:15:00
2:35 PM,59.0,32.0,36,30.24,10.0,Calm,Calm,-,N/A,,Clear,0,2012-11-09 19:35:00
2:55 PM,60.8,32.0,34,30.23,10.0,Calm,Calm,-,N/A,,Clear,0,2012-11-09 19:55:00
3:15 PM,60.8,32.0,34,30.23,10.0,West,3.5,-,N/A,,Clear,280,2012-11-09 20:15:00
3:35 PM,60.8,32.0,34,30.24,10.0,Calm,Calm,-,N/A,,Clear,0,2012-11-09 20:35:00
3:55 PM,60.8,32.0,34,30.24,10.0,West,3.5,-,N/A,,Clear,260,2012-11-09 20:55:00
4:15 PM,60.8,32.0,34,30.23,10.0,West,3.5,-,N/A,,Clear,260,2012-11-09 21:15:00
4:35 PM,59.0,32.0,36,30.23,10.0,Calm,Calm,-,N/A,,Clear,0,2012-11-09 21:35:00
4:55 PM,59.0,32.0,36,30.23,10.0,Calm,Calm,-,N/A,,Clear,0,2012-11-09 21:55:00
5:15 PM,57.2,37.4,48,30.23,10.0,Calm,Calm,-,N/A,,Clear,0,2012-11-09 22:15:00
5:35 PM,55.4,37.4,51,30.23,10.0,Calm,Calm,-,N/A,,Unknown,0,2012-11-09 22:35:00
5:55 PM,50.0,37.4,62,30.24,10.0,Calm,Calm,-,N/A,,Unknown,0,2012-11-09 22:55:00
6:15 PM,46.4,37.4,71,30.24,10.0,Calm,Calm,-,N/A,,Unknown,0,2012-11-09 23:15:00
6:35 PM,46.4,35.6,66,30.25,10.0,Calm,Calm,-,N/A,,Unknown,0,2012-11-09 23:35:00
6:55 PM,44.6,37.4,76,30.25,10.0,Calm,Calm,-,N/A,,Unknown,0,2012-11-09 23:55:00
7:15 PM,41.0,35.6,81,30.25,10.0,NNE,3.5,-,N/A,,Unknown,30,2012-11-10 00:15:00
7:35 PM,41.0,35.6,81,30.25,10.0,Calm,Calm,-,N/A,,Unknown,0,2012-11-10 00:35:00
7:55 PM,41.0,35.6,81,30.25,10.0,Calm,Calm,-,N/A,,Unknown,0,2012-11-10 00:55:00
8:15 PM,39.2,35.6,87,30.25,10.0,Calm,Calm,-,N/A,,Unknown,0,2012-11-10 01:15:00
8:55 PM,37.4,33.8,87,30.26,10.0,Calm,Calm,-,N/A,,Unknown,0,2012-11-10 01:55:00
9:15 PM,37.4,33.8,87,30.27,10.0,Calm,Calm,-,N/A,,Unknown,0,2012-11-10 02:15:00
9:35 PM,37.4,35.6,93,30.27,10.0,Calm,Calm,-,N/A,,Unknown,0,2012-11-10 02:35:00
9:55 PM,35.6,32.0,87,30.27,10.0,Calm,Calm,-,N/A,,Unknown,0,2012-11-10 02:55:00
10:35 PM,35.6,32.0,87,30.28,10.0,Calm,Calm,-,N/A,,Unknown,0,2012-11-10 03:35:00
10:55 PM,35.6,32.0,87,30.28,10.0,Calm,Calm,-,N/A,,Unknown,0,2012-11-10 03:55:00
11:15 PM,33.8,32.0,93,30.28,10.0,Calm,Calm,-,N/A,,Unknown,0,2012-11-10 04:15:00
11:55 PM,33.8,32.0,93,30.29,10.0,Calm,Calm,-,N/A,,Unknown,0,2012-11-10 04:55:00